Minerva Virgo — SXXT — position and weather

sailwx.info

Track history (hours):
 
Tides and Currents Weather Stations Pressure Air Temp Water Temp Dewpoint Dewpoint Depression Visibility Wind Speed Wind Dir Waves Ship Positions

Minerva Virgo

Last reported at 2014-Aug-28 13:07 UTC. Time now 2014-Sep-02 18:47 UTC.
Position N 44°10' E 038°22'.

Length 183 m; draft 8.2 m.

Type: Tanker. MMSI: 240730000.

Date/timePositionNaut miles runAvg speedWind from/ knotsBaromVisibWave heightAir tempDewpointWater temp
2014-Aug-28 13:07N 44°10' E 038°22'5 0.3
2014-Aug-27 18:19N 44°05' E 038°20'6 3.0
2014-Aug-27 16:21N 44°10' E 038°15'7 9.3
2014-Aug-27 15:33N 44°16' E 038°09'9 9.5
2014-Aug-27 14:34N 44°23' E 037°60'10 9.7
2014-Aug-27 13:30N 44°30' E 037°51'6 6.0
2014-Aug-27 12:31N 44°36' E 037°55'0 0.1
2014-Aug-27 11:31N 44°36' E 037°55'0 0.1
2014-Aug-27 10:31N 44°36' E 037°55'0 0.0
2014-Aug-27 09:28N 44°36' E 037°55'0 0.0
2014-Aug-27 08:28N 44°36' E 037°55'0 0.0
2014-Aug-27 07:31N 44°36' E 037°55'0 0.0
2014-Aug-27 06:31N 44°36' E 037°55'0 0.0
2014-Aug-27 05:31N 44°36' E 037°55'0 0.0
2014-Aug-27 04:31N 44°36' E 037°55'0 0.1
2014-Aug-27 03:31N 44°36' E 037°55'0 0.0
2014-Aug-27 02:31N 44°36' E 037°55'0 0.1
2014-Aug-27 01:31N 44°36' E 037°55'0 0.0
2014-Aug-27 00:31N 44°36' E 037°55'0 0.1
2014-Aug-26 23:31N 44°36' E 037°54'0 0.1
2014-Aug-26 22:31N 44°36' E 037°54'0 0.0
2014-Aug-26 21:31N 44°35' E 037°54'0 0.0
2014-Aug-26 20:31N 44°35' E 037°54'0 0.0
2014-Aug-26 19:31N 44°35' E 037°54'0 0.0
2014-Aug-26 18:31N 44°35' E 037°54'0 0.0
2014-Aug-26 17:31N 44°35' E 037°54'0 0.0
2014-Aug-26 16:31N 44°35' E 037°54'0 0.0
2014-Aug-26 15:31N 44°35' E 037°54'0 0.0
2014-Aug-26 14:31N 44°35' E 037°55'0 0.0
2014-Aug-26 13:31N 44°35' E 037°55'0 0.1
2014-Aug-26 12:31N 44°35' E 037°55'0 0.1
2014-Aug-26 11:31N 44°35' E 037°55'0 0.0
2014-Aug-26 10:31N 44°35' E 037°55'0 0.1
2014-Aug-26 09:31N 44°35' E 037°55'0 0.1
2014-Aug-26 08:33N 44°35' E 037°55'0 0.0
2014-Aug-26 07:33N 44°35' E 037°55'0 0.2
2014-Aug-26 06:33N 44°36' E 037°55'0 0.1
2014-Aug-26 05:33N 44°36' E 037°54'0 0.2
2014-Aug-26 04:33N 44°35' E 037°54'9 8.5
2014-Aug-26 03:33N 44°30' E 037°45'1010.1
2014-Aug-26 02:32N 44°25' E 037°32'97 9.7
2014-Aug-25 16:31N 43°41' E 035°33'1210.1
2014-Aug-25 15:18N 43°35' E 035°18'282 9.8
2014-Aug-24 10:29N 41°24' E 029°38'910.1
2014-Aug-24 09:33N 41°20' E 029°27'11 9.7
2014-Aug-24 08:24N 41°16' E 029°13'19 9.4
2014-Aug-24 06:20N 40°60' E 028°60'810.2
2014-Aug-24 05:32N 40°53' E 028°54'4 0.5
2014-Aug-23 22:06N 40°49' E 028°55'1 0.8
2014-Aug-23 21:24N 40°49' E 028°56'96 5.1
2014-Aug-23 02:32N 40°28' E 026°52'1110.5
2014-Aug-23 01:30N 40°22' E 026°40'40 9.4
2014-Aug-22 21:17N 39°58' E 025°60'7 8.9
2014-Aug-22 20:32N 39°53' E 025°54'7 3.0
2014-Aug-22 18:15N 39°46' E 025°53'12 3.2
2014-Aug-22 14:26N 39°36' E 025°44'98 9.8
2014-Aug-22 04:26N 37°58' E 025°37'1011.1
2014-Aug-22 03:33N 37°49' E 025°41'1111.4
2014-Aug-22 02:34N 37°39' E 025°46'1111.2
2014-Aug-22 01:33N 37°28' E 025°51'1110.9
2014-Aug-22 00:33N 37°19' E 025°58'1010.2
2014-Aug-21 23:33N 37°10' E 026°04'1010.0
2014-Aug-21 22:33N 37°01' E 026°10'10 9.6
2014-Aug-21 21:33N 36°53' E 026°17'1110.6
2014-Aug-21 20:33N 36°46' E 026°27'3210.7
2014-Aug-21 17:33N 36°22' E 026°54'1310.3
2014-Aug-21 16:20N 36°13' E 027°05'810.1
2014-Aug-21 15:33N 36°08' E 027°12'9 9.4
2014-Aug-21 14:32N 36°01' E 027°19'9 9.0
2014-Aug-21 13:33N 35°54' E 027°27'18 8.9
2014-Aug-21 11:33N 35°47' E 027°47'10 9.1
2014-Aug-21 10:26N 35°44' E 027°59'8 9.1
2014-Aug-21 09:32N 35°41' E 028°09'9 9.3
2014-Aug-21 08:32N 35°39' E 028°20'10 9.6
2014-Aug-21 07:32N 35°36' E 028°31'214 9.7
2014-Aug-20 09:33N 34°32' E 032°41'9 9.5
2014-Aug-20 08:33N 34°31' E 032°52'9 9.4
2014-Aug-20 07:33N 34°31' E 033°04'9 8.7
2014-Aug-20 06:33N 34°39' E 033°05'0 0.3
2014-Aug-20 05:32N 34°40' E 033°05'0 0.0
2014-Aug-20 04:32N 34°40' E 033°05'0 0.0
2014-Aug-20 03:32N 34°40' E 033°05'0 0.0
2014-Aug-20 02:32N 34°40' E 033°05'0 0.0
2014-Aug-20 01:32N 34°40' E 033°05'0 0.0
2014-Aug-20 00:32N 34°40' E 033°05'0 0.0
2014-Aug-19 23:32N 34°40' E 033°05'0 0.0
2014-Aug-19 22:32N 34°40' E 033°05'0 0.0
2014-Aug-19 21:29N 34°40' E 033°05'0 0.0
2014-Aug-19 20:29N 34°40' E 033°05'0 0.0
2014-Aug-19 19:32N 34°40' E 033°05'0 0.0
2014-Aug-19 18:32N 34°40' E 033°05'0 0.0
2014-Aug-19 17:32N 34°40' E 033°05'0 0.0
2014-Aug-19 16:32N 34°40' E 033°05'0 0.0
2014-Aug-19 15:32N 34°40' E 033°05'0 0.0
2014-Aug-19 14:32N 34°40' E 033°05'0 0.0
2014-Aug-19 13:32N 34°40' E 033°05'0 0.0
2014-Aug-19 12:32N 34°40' E 033°05'0 0.0
2014-Aug-19 11:32N 34°40' E 033°05'0 0.0
2014-Aug-19 10:32N 34°40' E 033°05'0 0.0
2014-Aug-19 09:32N 34°40' E 033°05'0 0.0
2014-Aug-19 08:32N 34°40' E 033°05'0 0.0
2014-Aug-19 07:32N 34°40' E 033°05'0 0.1
2014-Aug-19 06:32N 34°40' E 033°05'0 0.1
2014-Aug-19 05:32N 34°40' E 033°05'0 0.0
2014-Aug-19 04:32N 34°40' E 033°05'0 0.0
2014-Aug-19 03:32N 34°40' E 033°05'0 0.0
2014-Aug-19 02:32N 34°40' E 033°05'0 0.0
2014-Aug-19 01:32N 34°40' E 033°05'0 0.0
2014-Aug-19 00:32N 34°40' E 033°05'0 0.0
2014-Aug-18 23:32N 34°40' E 033°05'0 0.0
2014-Aug-18 22:32N 34°40' E 033°05'0 0.0
2014-Aug-18 20:20N 34°40' E 033°05'0 0.0
2014-Aug-18 16:14N 34°40' E 033°05'0 0.0
2014-Aug-18 15:14N 34°40' E 033°05'0 0.0
2014-Aug-18 14:11N 34°40' E 033°05'  
Track history (hours):
 
Tides and Currents Weather Stations Pressure Air Temp Water Temp Dewpoint Dewpoint Depression Visibility Wind Speed Wind Dir Waves Ship Positions

Minerva Virgo

Last reported at 2014-Aug-28 13:07 UTC. Time now 2014-Sep-02 18:47 UTC.
Position N 44°10' E 038°22'.

Length 183 m; draft 8.2 m.

Type: Tanker. MMSI: 240730000.

Date/timePositionNaut miles runAvg speedWind from/ knotsBaromVisibWave heightAir tempDewpointWater temp
2014-Aug-28 13:07N 44°10' E 038°22'5 0.3
2014-Aug-27 18:19N 44°05' E 038°20'6 3.0
2014-Aug-27 16:21N 44°10' E 038°15'7 9.3
2014-Aug-27 15:33N 44°16' E 038°09'9 9.5
2014-Aug-27 14:34N 44°23' E 037°60'10 9.7
2014-Aug-27 13:30N 44°30' E 037°51'6 6.0
2014-Aug-27 12:31N 44°36' E 037°55'0 0.1
2014-Aug-27 11:31N 44°36' E 037°55'0 0.1
2014-Aug-27 10:31N 44°36' E 037°55'0 0.0
2014-Aug-27 09:28N 44°36' E 037°55'0 0.0
2014-Aug-27 08:28N 44°36' E 037°55'0 0.0
2014-Aug-27 07:31N 44°36' E 037°55'0 0.0
2014-Aug-27 06:31N 44°36' E 037°55'0 0.0
2014-Aug-27 05:31N 44°36' E 037°55'0 0.0
2014-Aug-27 04:31N 44°36' E 037°55'0 0.1
2014-Aug-27 03:31N 44°36' E 037°55'0 0.0
2014-Aug-27 02:31N 44°36' E 037°55'0 0.1
2014-Aug-27 01:31N 44°36' E 037°55'0 0.0
2014-Aug-27 00:31N 44°36' E 037°55'0 0.1
2014-Aug-26 23:31N 44°36' E 037°54'0 0.1
2014-Aug-26 22:31N 44°36' E 037°54'0 0.0
2014-Aug-26 21:31N 44°35' E 037°54'0 0.0
2014-Aug-26 20:31N 44°35' E 037°54'0 0.0
2014-Aug-26 19:31N 44°35' E 037°54'0 0.0
2014-Aug-26 18:31N 44°35' E 037°54'0 0.0
2014-Aug-26 17:31N 44°35' E 037°54'0 0.0
2014-Aug-26 16:31N 44°35' E 037°54'0 0.0
2014-Aug-26 15:31N 44°35' E 037°54'0 0.0
2014-Aug-26 14:31N 44°35' E 037°55'0 0.0
2014-Aug-26 13:31N 44°35' E 037°55'0 0.1
2014-Aug-26 12:31N 44°35' E 037°55'0 0.1
2014-Aug-26 11:31N 44°35' E 037°55'0 0.0
2014-Aug-26 10:31N 44°35' E 037°55'0 0.1
2014-Aug-26 09:31N 44°35' E 037°55'0 0.1
2014-Aug-26 08:33N 44°35' E 037°55'0 0.0
2014-Aug-26 07:33N 44°35' E 037°55'0 0.2
2014-Aug-26 06:33N 44°36' E 037°55'0 0.1
2014-Aug-26 05:33N 44°36' E 037°54'0 0.2
2014-Aug-26 04:33N 44°35' E 037°54'9 8.5
2014-Aug-26 03:33N 44°30' E 037°45'1010.1
2014-Aug-26 02:32N 44°25' E 037°32'97 9.7
2014-Aug-25 16:31N 43°41' E 035°33'1210.1
2014-Aug-25 15:18N 43°35' E 035°18'282 9.8
2014-Aug-24 10:29N 41°24' E 029°38'910.1
2014-Aug-24 09:33N 41°20' E 029°27'11 9.7
2014-Aug-24 08:24N 41°16' E 029°13'19 9.4
2014-Aug-24 06:20N 40°60' E 028°60'810.2
2014-Aug-24 05:32N 40°53' E 028°54'4 0.5
2014-Aug-23 22:06N 40°49' E 028°55'1 0.8
2014-Aug-23 21:24N 40°49' E 028°56'96 5.1
2014-Aug-23 02:32N 40°28' E 026°52'1110.5
2014-Aug-23 01:30N 40°22' E 026°40'40 9.4
2014-Aug-22 21:17N 39°58' E 025°60'7 8.9
2014-Aug-22 20:32N 39°53' E 025°54'7 3.0
2014-Aug-22 18:15N 39°46' E 025°53'12 3.2
2014-Aug-22 14:26N 39°36' E 025°44'98 9.8
2014-Aug-22 04:26N 37°58' E 025°37'1011.1
2014-Aug-22 03:33N 37°49' E 025°41'1111.4
2014-Aug-22 02:34N 37°39' E 025°46'1111.2
2014-Aug-22 01:33N 37°28' E 025°51'1110.9
2014-Aug-22 00:33N 37°19' E 025°58'1010.2
2014-Aug-21 23:33N 37°10' E 026°04'1010.0
2014-Aug-21 22:33N 37°01' E 026°10'10 9.6
2014-Aug-21 21:33N 36°53' E 026°17'1110.6
2014-Aug-21 20:33N 36°46' E 026°27'3210.7
2014-Aug-21 17:33N 36°22' E 026°54'1310.3
2014-Aug-21 16:20N 36°13' E 027°05'810.1
2014-Aug-21 15:33N 36°08' E 027°12'9 9.4
2014-Aug-21 14:32N 36°01' E 027°19'9 9.0
2014-Aug-21 13:33N 35°54' E 027°27'18 8.9
2014-Aug-21 11:33N 35°47' E 027°47'10 9.1
2014-Aug-21 10:26N 35°44' E 027°59'8 9.1
2014-Aug-21 09:32N 35°41' E 028°09'9 9.3
2014-Aug-21 08:32N 35°39' E 028°20'10 9.6
2014-Aug-21 07:32N 35°36' E 028°31'214 9.7
2014-Aug-20 09:33N 34°32' E 032°41'9 9.5
2014-Aug-20 08:33N 34°31' E 032°52'9 9.4
2014-Aug-20 07:33N 34°31' E 033°04'9 8.7
2014-Aug-20 06:33N 34°39' E 033°05'0 0.3
2014-Aug-20 05:32N 34°40' E 033°05'0 0.0
2014-Aug-20 04:32N 34°40' E 033°05'0 0.0
2014-Aug-20 03:32N 34°40' E 033°05'0 0.0
2014-Aug-20 02:32N 34°40' E 033°05'0 0.0
2014-Aug-20 01:32N 34°40' E 033°05'0 0.0
2014-Aug-20 00:32N 34°40' E 033°05'0 0.0
2014-Aug-19 23:32N 34°40' E 033°05'0 0.0
2014-Aug-19 22:32N 34°40' E 033°05'0 0.0
2014-Aug-19 21:29N 34°40' E 033°05'0 0.0
2014-Aug-19 20:29N 34°40' E 033°05'0 0.0
2014-Aug-19 19:32N 34°40' E 033°05'0 0.0
2014-Aug-19 18:32N 34°40' E 033°05'0 0.0
2014-Aug-19 17:32N 34°40' E 033°05'0 0.0
2014-Aug-19 16:32N 34°40' E 033°05'0 0.0
2014-Aug-19 15:32N 34°40' E 033°05'0 0.0
2014-Aug-19 14:32N 34°40' E 033°05'0 0.0
2014-Aug-19 13:32N 34°40' E 033°05'0 0.0
2014-Aug-19 12:32N 34°40' E 033°05'0 0.0
2014-Aug-19 11:32N 34°40' E 033°05'0 0.0
2014-Aug-19 10:32N 34°40' E 033°05'0 0.0
2014-Aug-19 09:32N 34°40' E 033°05'0 0.0
2014-Aug-19 08:32N 34°40' E 033°05'0 0.0
2014-Aug-19 07:32N 34°40' E 033°05'0 0.1
2014-Aug-19 06:32N 34°40' E 033°05'0 0.1
2014-Aug-19 05:32N 34°40' E 033°05'0 0.0
2014-Aug-19 04:32N 34°40' E 033°05'0 0.0
2014-Aug-19 03:32N 34°40' E 033°05'0 0.0
2014-Aug-19 02:32N 34°40' E 033°05'0 0.0
2014-Aug-19 01:32N 34°40' E 033°05'0 0.0
2014-Aug-19 00:32N 34°40' E 033°05'0 0.0
2014-Aug-18 23:32N 34°40' E 033°05'0 0.0
2014-Aug-18 22:32N 34°40' E 033°05'0 0.0
2014-Aug-18 20:20N 34°40' E 033°05'0 0.0
2014-Aug-18 16:14N 34°40' E 033°05'0 0.0
2014-Aug-18 15:14N 34°40' E 033°05'0 0.0
2014-Aug-18 14:11N 34°40' E 033°05'  

Dump ship's entire track history